Time;durP1;ratioP1;P1;durP2;ratioP2;P2;SDS_P1;SDS_P2;PMS_P1;PMS_P2;Temp;Humidity;BMP_temperature;BMP_pressure;BME280_temperature;BME280_humidity;BME280_pressure;Samples;Min_cycle;Max_cycle;Signal;HPM_P1;HPM_P2
2022/12/13 00:00:22;;;;;;;0.10;0.10;;;0.30;99.90;;;;;;5069096;28;20044;-75
2022/12/13 00:02:48;;;;;;;0.20;0.20;;;0.20;99.90;;;;;;5049895;28;20036;-75
2022/12/13 00:05:14;;;;;;;0.20;0.20;;;0.30;99.90;;;;;;5068551;28;20241;-75
2022/12/13 00:07:41;;;;;;;0.37;0.37;;;0.40;99.90;;;;;;5051031;28;20020;-75
2022/12/13 00:10:10;;;;;;;0.20;0.20;;;-1.90;99.90;;;;;;5074209;28;20234;-75
2022/12/13 00:12:37;;;;;;;0.40;0.40;;;0.20;99.90;;;;;;5089905;28;20009;-76
2022/12/13 00:15:05;;;;;;;0.20;0.20;;;0.10;99.90;;;;;;5082341;28;20335;-75
2022/12/13 00:17:31;;;;;;;0.10;0.10;;;0.10;99.90;;;;;;5056583;28;20559;-75
2022/12/13 00:19:57;;;;;;;0.20;0.20;;;0.00;99.90;;;;;;5082213;28;20020;-75
2022/12/13 00:22:23;;;;;;;1.40;1.40;;;-0.10;99.90;;;;;;5055069;28;20036;-75
2022/12/13 00:24:59;;;;;;;0.20;0.20;;;-0.10;99.90;;;;;;5085174;28;20035;-75
2022/12/13 00:27:25;;;;;;;2.20;2.10;;;0.00;99.90;;;;;;5065860;28;20225;-75
2022/12/13 00:29:51;;;;;;;1.03;1.03;;;0.00;99.90;;;;;;5064878;28;20290;-75
2022/12/13 00:32:17;;;;;;;1.00;0.63;;;0.00;99.90;;;;;;5061828;28;20325;-75
2022/12/13 00:34:43;;;;;;;1.70;1.70;;;0.00;99.90;;;;;;5061815;28;20119;-75
2022/12/13 00:37:09;;;;;;;0.20;0.20;;;0.00;99.90;;;;;;5062229;28;20047;-76
2022/12/13 00:39:35;;;;;;;0.20;0.20;;;-0.10;99.90;;;;;;5063216;28;20028;-75
2022/12/13 00:42:01;;;;;;;0.20;0.20;;;-0.30;99.90;;;;;;5061784;28;20017;-75
2022/12/13 00:44:26;;;;;;;0.40;0.40;;;-3.20;99.90;;;;;;5062590;28;20495;-75
2022/12/13 00:46:52;;;;;;;24.23;22.97;;;-0.20;99.90;;;;;;5042875;28;20020;-75
2022/12/13 00:49:19;;;;;;;0.20;0.20;;;-0.20;99.90;;;;;;5061498;28;20035;-75
2022/12/13 00:51:47;;;;;;;0.53;0.53;;;;;;;;;;5043778;28;20368;-75
2022/12/13 00:54:12;;;;;;;0.10;0.10;;;-0.20;99.90;;;;;;5061645;28;20083;-75
2022/12/13 00:56:38;;;;;;;0.37;0.37;;;0.00;99.90;;;;;;5047139;28;20021;-75
2022/12/13 00:59:04;;;;;;;0.20;0.20;;;-0.10;99.90;;;;;;5076761;28;20075;-75
2022/12/13 01:01:34;;;;;;;0.30;0.30;;;-0.20;99.90;;;;;;5068708;28;20333;-75
2022/12/13 01:04:04;;;;;;;2.40;2.30;;;-0.30;99.90;;;;;;5075421;28;20125;-75
2022/12/13 01:06:45;;;;;;;0.20;0.20;;;-0.50;99.90;;;;;;5068818;28;20052;-75
2022/12/13 01:09:23;;;;;;;0.20;0.20;;;-0.40;99.90;;;;;;5076466;28;20044;-75
2022/12/13 01:11:50;;;;;;;0.20;0.20;;;-0.40;99.90;;;;;;5051130;28;20028;-75
2022/12/13 01:14:17;;;;;;;0.30;0.30;;;-0.30;99.90;;;;;;5062229;28;20024;-75
2022/12/13 01:16:42;;;;;;;0.20;0.20;;;-0.20;99.90;;;;;;5043376;28;20028;-75
2022/12/13 01:19:08;;;;;;;0.20;0.20;;;-0.20;99.90;;;;;;5063772;28;20047;-75
2022/12/13 01:21:34;;;;;;;0.10;0.10;;;-0.20;99.90;;;;;;5044889;28;20024;-75
2022/12/13 01:24:05;;;;;;;0.20;0.20;;;-0.30;99.90;;;;;;5063076;28;20032;-75
2022/12/13 01:26:31;;;;;;;0.33;0.33;;;-1.50;99.90;;;;;;5065220;28;20079;-75
2022/12/13 01:28:57;;;;;;;0.10;0.10;;;-0.20;99.90;;;;;;5060495;28;20539;-74
2022/12/13 01:31:24;;;;;;;0.20;0.20;;;-0.40;99.90;;;;;;5062219;28;20229;-75
2022/12/13 01:33:49;;;;;;;0.20;0.20;;;-0.20;99.90;;;;;;5081631;28;20025;-74
2022/12/13 01:36:20;;;;;;;0.20;0.20;;;-0.30;99.90;;;;;;5081296;28;20060;-75
2022/12/13 01:38:46;;;;;;;0.20;0.20;;;-0.30;99.90;;;;;;5073127;28;20071;-75
2022/12/13 01:41:17;;;;;;;0.70;0.70;;;-0.30;99.90;;;;;;5079745;28;20032;-75
2022/12/13 01:43:43;;;;;;;0.20;0.20;;;-0.20;99.90;;;;;;5079863;28;20032;-75
2022/12/13 01:46:14;;;;;;;0.13;0.13;;;-0.30;99.90;;;;;;5051648;28;20241;-74
2022/12/13 01:48:47;;;;;;;0.20;0.20;;;-0.30;99.90;;;;;;5059376;28;20041;-75
2022/12/13 01:51:19;;;;;;;0.10;0.10;;;-0.20;99.90;;;;;;5078117;28;20021;-75
2022/12/13 01:53:47;;;;;;;0.20;0.20;;;-0.20;99.90;;;;;;5063842;28;20031;-75
2022/12/13 01:56:24;;;;;;;0.20;0.20;;;-0.10;99.90;;;;;;5077020;28;20016;-75
2022/12/13 01:58:53;;;;;;;0.20;0.20;;;0.00;99.90;;;;;;5048873;28;20047;-75
2022/12/13 02:01:21;;;;;;;0.10;0.10;;;0.00;99.90;;;;;;5075762;28;20024;-75
2022/12/13 02:03:48;;;;;;;0.20;0.20;;;0.10;99.90;;;;;;5077319;28;20043;-75
2022/12/13 02:06:27;;;;;;;6.90;6.57;;;0.00;99.90;;;;;;5063972;28;20048;-75
2022/12/13 02:08:53;;;;;;;0.10;0.10;;;0.00;99.90;;;;;;5047314;28;20028;-76
2022/12/13 02:11:19;;;;;;;0.10;0.10;;;0.30;99.90;;;;;;5062432;28;20017;-75
2022/12/13 02:13:45;;;;;;;0.10;0.10;;;;;;;;;;5065210;28;20035;-75
2022/12/13 02:16:11;;;;;;;0.20;0.20;;;0.00;99.90;;;;;;5064630;28;20021;-74
2022/12/13 02:18:48;;;;;;;0.20;0.20;;;0.00;99.90;;;;;;5045845;28;20360;-75
2022/12/13 02:22:08;;;;;;;0.20;0.20;;;0.30;99.90;;;;;;5068399;28;20044;-77
2022/12/13 02:24:57;;;;;;;0.20;0.20;;;-0.20;99.90;;;;;;5007280;28;20321;-75
2022/12/13 02:27:37;;;;;;;0.10;0.10;;;-0.30;99.90;;;;;;5001962;28;20034;-75
2022/12/13 02:30:23;;;;;;;0.20;0.20;;;-0.20;99.90;;;;;;4995859;28;20105;-75
2022/12/13 02:33:24;;;;;;;3.37;3.17;;;-0.30;99.90;;;;;;4997009;28;20068;-75
2022/12/13 02:35:56;;;;;;;0.10;0.10;;;-0.20;99.90;;;;;;4980549;28;20152;-75
2022/12/13 02:38:43;;;;;;;0.10;0.10;;;-0.30;99.90;;;;;;4996805;28;20034;-75
2022/12/13 02:41:26;;;;;;;0.20;0.20;;;-0.50;99.90;;;;;;4996630;28;20025;-74
2022/12/13 02:43:58;;;;;;;0.10;0.10;;;-0.50;99.90;;;;;;4996985;28;20104;-75
2022/12/13 02:46:27;;;;;;;0.20;0.20;;;-0.50;99.90;;;;;;4996370;28;20030;-76
2022/12/13 02:48:56;;;;;;;0.20;0.20;;;-0.40;99.90;;;;;;4996517;28;20044;-75
2022/12/13 02:51:23;;;;;;;0.20;0.20;;;-0.40;99.90;;;;;;4996649;28;20045;-75
2022/12/13 02:53:49;;;;;;;0.20;0.20;;;-0.30;99.90;;;;;;4997325;28;20078;-75
2022/12/13 02:56:15;;;;;;;0.20;0.20;;;-0.30;99.90;;;;;;4998168;28;20027;-75
2022/12/13 02:58:46;;;;;;;0.20;0.20;;;-0.30;99.90;;;;;;5030116;28;20033;-75
2022/12/13 03:01:23;;;;;;;0.17;0.17;;;-0.20;99.90;;;;;;5059301;28;20028;-75
2022/12/13 03:04:06;;;;;;;0.20;0.20;;;-0.30;99.90;;;;;;5058882;28;20553;-75
2022/12/13 03:06:55;;;;;;;24.60;22.67;;;2.30;99.90;;;;;;5059818;28;20037;-75
2022/12/13 03:09:41;;;;;;;0.20;0.20;;;-0.10;99.90;;;;;;5059395;28;20616;-75
2022/12/13 03:15:33;;;;;;;0.20;0.20;;;-0.10;99.90;;;;;;5059681;28;20043;-75
2022/12/13 03:18:04;;;;;;;0.20;0.20;;;-2.20;99.90;;;;;;5061308;28;20025;-75
2022/12/13 03:20:31;;;;;;;0.20;0.20;;;0.00;99.90;;;;;;5062721;28;20034;-75
2022/12/13 03:22:58;;;;;;;0.10;0.10;;;-0.10;99.90;;;;;;5062544;28;20032;-75
2022/12/13 03:25:26;;;;;;;0.20;0.20;;;-0.10;99.90;;;;;;5062789;28;20222;-75
2022/12/13 03:27:52;;;;;;;0.43;0.43;;;0.00;99.90;;;;;;5067301;28;20317;-75
2022/12/13 03:30:18;;;;;;;0.20;0.20;;;-0.10;99.90;;;;;;5060682;28;20048;-74
2022/12/13 03:32:44;;;;;;;0.30;0.30;;;-0.10;99.90;;;;;;5079444;28;20108;-75
2022/12/13 03:35:10;;;;;;;0.30;0.30;;;0.00;99.90;;;;;;5081594;28;20039;-74
2022/12/13 03:37:36;;;;;;;0.17;0.17;;;0.00;99.90;;;;;;5069779;28;20540;-75
2022/12/13 03:40:02;;;;;;;0.20;0.20;;;0.00;99.90;;;;;;5055773;28;20038;-75
2022/12/13 03:42:28;;;;;;;0.20;0.20;;;0.00;99.90;;;;;;5066520;28;20473;-75
2022/12/13 03:44:55;;;;;;;0.10;0.10;;;2.20;99.90;;;;;;5079366;28;20115;-75
2022/12/13 03:47:21;;;;;;;0.20;0.20;;;-0.20;99.90;;;;;;5080591;28;20056;-74
2022/12/13 03:49:47;;;;;;;0.10;0.10;;;-0.20;99.90;;;;;;5064491;28;20390;-75
2022/12/13 03:52:12;;;;;;;0.30;0.30;;;-0.20;99.90;;;;;;5063877;28;20012;-75
2022/12/13 03:54:38;;;;;;;0.20;0.20;;;-0.10;99.90;;;;;;5082783;28;20058;-75
2022/12/13 03:57:04;;;;;;;0.20;0.20;;;-0.40;99.90;;;;;;5077244;28;20036;-75
2022/12/13 03:59:30;;;;;;;0.23;0.23;;;-0.50;99.90;;;;;;5067749;28;20088;-75
2022/12/13 04:01:56;;;;;;;0.20;0.20;;;-0.50;99.90;;;;;;5066801;28;20027;-74
2022/12/13 04:04:21;;;;;;;0.20;0.20;;;-0.40;99.90;;;;;;5066743;28;20494;-74
2022/12/13 04:06:47;;;;;;;0.20;0.20;;;-0.40;99.90;;;;;;5067179;28;20144;-75
2022/12/13 04:09:18;;;;;;;0.20;0.20;;;;;;;;;;5067284;28;20119;-75
2022/12/13 04:14:28;;;;;;;0.10;0.10;;;-0.30;99.90;;;;;;5085608;28;20143;-75
2022/12/13 04:16:55;;;;;;;0.20;0.20;;;-0.20;99.90;;;;;;5082027;28;20048;-74
2022/12/13 04:19:22;;;;;;;0.20;0.20;;;-0.30;99.90;;;;;;5071106;28;20029;-75
2022/12/13 04:21:48;;;;;;;0.20;0.20;;;-0.20;99.90;;;;;;5079887;28;20027;-75
2022/12/13 04:24:16;;;;;;;0.20;0.20;;;-0.10;99.90;;;;;;5079331;28;20064;-74
2022/12/13 04:26:42;;;;;;;2.63;2.50;;;-0.10;99.90;;;;;;5064905;28;20336;-75
2022/12/13 04:29:08;;;;;;;0.53;0.53;;;-0.10;99.90;;;;;;5064689;28;20036;-75
2022/12/13 04:31:34;;;;;;;0.10;0.10;;;0.00;99.90;;;;;;5062826;28;20020;-75
2022/12/13 04:33:59;;;;;;;0.10;0.10;;;0.00;99.90;;;;;;5063158;28;20194;-74
2022/12/13 04:36:25;;;;;;;0.20;0.20;;;1.10;99.90;;;;;;5045282;28;20017;-75
2022/12/13 04:38:52;;;;;;;0.13;0.13;;;-0.20;99.90;;;;;;5064931;28;20142;-75
2022/12/13 04:41:19;;;;;;;0.20;0.20;;;-0.10;99.90;;;;;;5063464;28;20162;-75
2022/12/13 04:43:53;;;;;;;0.20;0.20;;;-0.10;99.90;;;;;;5069980;28;20063;-75
2022/12/13 04:46:19;;;;;;;;;;;-0.20;99.90;;;;;;5081618;28;20033;-75
2022/12/13 04:48:44;;;;;;;0.20;0.20;;;-0.20;99.90;;;;;;5084767;28;19915;-75
2022/12/13 04:51:12;;;;;;;0.20;0.20;;;-0.20;99.90;;;;;;5085338;28;20214;-75
2022/12/13 04:53:38;;;;;;;0.57;0.57;;;-0.20;99.90;;;;;;5061808;28;20806;-75
2022/12/13 04:56:04;;;;;;;11.57;10.93;;;-0.30;99.90;;;;;;5067663;28;20024;-74
2022/12/13 04:58:30;;;;;;;0.20;0.20;;;-0.20;99.90;;;;;;5085143;28;20104;-75
2022/12/13 05:00:57;;;;;;;0.20;0.20;;;-0.30;99.90;;;;;;5067396;28;20032;-75
2022/12/13 05:03:23;;;;;;;0.20;0.20;;;-0.30;99.90;;;;;;5076631;28;20107;-75
2022/12/13 05:05:52;;;;;;;0.20;0.20;;;-0.40;99.90;;;;;;5065999;28;20466;-74
2022/12/13 05:08:20;;;;;;;0.20;0.20;;;-0.60;99.90;;;;;;5082443;28;20032;-76
2022/12/13 05:10:46;;;;;;;0.20;0.20;;;-0.60;99.90;;;;;;5067466;28;20088;-76
2022/12/13 05:13:12;;;;;;;0.20;0.20;;;-2.00;99.90;;;;;;5068350;28;20020;-75
2022/12/13 05:16:11;;;;;;;0.20;0.20;;;-0.50;99.90;;;;;;5071855;28;20108;-75
2022/12/13 05:18:37;;;;;;;0.17;0.17;;;-0.70;99.90;;;;;;4996726;28;20057;-75
2022/12/13 05:21:09;;;;;;;0.20;0.20;;;-0.60;99.90;;;;;;4988773;28;20031;-74
2022/12/13 05:23:42;;;;;;;0.20;0.20;;;-0.70;99.90;;;;;;5006896;28;20034;-75
2022/12/13 05:26:08;;;;;;;0.20;0.20;;;-0.60;99.90;;;;;;5003003;28;20141;-75
2022/12/13 05:28:34;;;;;;;0.30;0.30;;;-0.60;99.90;;;;;;4996218;28;20062;-75
2022/12/13 05:31:10;;;;;;;0.10;0.10;;;-0.60;99.90;;;;;;4993934;28;20048;-76
2022/12/13 05:33:37;;;;;;;0.20;0.20;;;-0.60;99.90;;;;;;5001940;28;20057;-76
2022/12/13 05:36:04;;;;;;;0.70;0.70;;;-0.50;99.90;;;;;;4996822;28;20487;-75
2022/12/13 05:38:31;;;;;;;0.20;0.20;;;-0.60;99.90;;;;;;4986642;28;20030;-75
2022/12/13 05:40:57;;;;;;;0.23;0.23;;;-0.60;99.90;;;;;;4979356;28;20050;-76
2022/12/13 05:43:23;;;;;;;0.20;0.20;;;-0.60;99.90;;;;;;4996960;28;20030;-77
2022/12/13 05:45:50;;;;;;;0.30;0.30;;;-0.50;99.90;;;;;;4987242;28;20061;-75
2022/12/13 05:48:17;;;;;;;0.20;0.20;;;-0.60;99.90;;;;;;4983590;28;20093;-75
2022/12/13 05:50:43;;;;;;;0.10;0.10;;;-0.50;99.90;;;;;;4983835;28;20038;-75
2022/12/13 05:53:10;;;;;;;0.20;0.20;;;-0.70;99.90;;;;;;4990650;28;20436;-75
2022/12/13 05:55:37;;;;;;;0.10;0.10;;;-0.70;99.90;;;;;;5064057;28;20306;-75
2022/12/13 05:58:15;;;;;;;0.13;0.13;;;-0.80;99.90;;;;;;5071915;28;20690;-75
2022/12/13 06:00:44;;;;;;;0.20;0.20;;;-0.70;99.90;;;;;;5087502;28;20052;-74
2022/12/13 06:03:10;;;;;;;0.30;0.30;;;-0.70;99.90;;;;;;5071577;28;20052;-75
2022/12/13 06:05:43;;;;;;;0.10;0.10;;;0.30;99.90;;;;;;5079650;28;20317;-77
2022/12/13 06:08:10;;;;;;;0.20;0.20;;;-0.70;99.90;;;;;;5070636;28;20052;-75
2022/12/13 06:10:37;;;;;;;0.20;0.20;;;-0.80;99.90;;;;;;5071042;28;20028;-74
2022/12/13 06:13:15;;;;;;;0.20;0.20;;;-0.70;99.90;;;;;;5078048;28;20039;-79
2022/12/13 06:15:41;;;;;;;0.27;0.27;;;-0.70;99.90;;;;;;5095324;28;20052;-75
2022/12/13 06:18:07;;;;;;;0.20;0.20;;;-0.70;99.90;;;;;;5051116;28;20096;-75
2022/12/13 06:20:33;;;;;;;0.10;0.10;;;-0.80;99.90;;;;;;5068973;28;20602;-75
2022/12/13 06:23:02;;;;;;;0.20;0.20;;;;;;;;;;5095427;28;20099;-80
2022/12/13 06:25:31;;;;;;;0.13;0.13;;;-0.70;99.90;;;;;;5085713;28;20040;-75
2022/12/13 06:27:57;;;;;;;0.20;0.20;;;-0.70;99.90;;;;;;5092308;28;20017;-76
2022/12/13 06:30:25;;;;;;;0.20;0.20;;;-0.60;99.90;;;;;;5095602;28;20048;-75
2022/12/13 06:32:59;;;;;;;0.20;0.20;;;-0.60;99.90;;;;;;5076051;28;20012;-75
2022/12/13 06:35:34;;;;;;;0.20;0.20;;;-0.50;99.90;;;;;;5075855;28;20024;-76
2022/12/13 06:38:01;;;;;;;0.20;0.20;;;-0.40;99.90;;;;;;5067786;28;20102;-75
2022/12/13 06:40:48;;;;;;;0.20;0.20;;;-0.30;99.90;;;;;;5064401;28;20335;-75
2022/12/13 06:43:24;;;;;;;1.17;1.17;;;-0.30;99.90;;;;;;5095614;28;20109;-75
2022/12/13 06:45:51;;;;;;;0.20;0.20;;;-0.20;99.90;;;;;;5094218;28;20037;-74
2022/12/13 06:48:17;;;;;;;0.20;0.20;;;-0.20;99.90;;;;;;5071969;28;20031;-76
2022/12/13 06:50:46;;;;;;;0.20;0.20;;;-0.20;99.90;;;;;;5047702;28;20017;-76
2022/12/13 06:53:13;;;;;;;0.20;0.20;;;-0.40;99.90;;;;;;5071204;28;20028;-75
2022/12/13 06:55:41;;;;;;;0.33;0.33;;;-0.90;99.90;;;;;;5073726;28;20023;-75
2022/12/13 06:58:07;;;;;;;0.20;0.20;;;-0.30;99.90;;;;;;5071119;28;20025;-75
2022/12/13 07:00:36;;;;;;;0.27;0.27;;;-0.10;99.90;;;;;;5062474;28;20068;-75
2022/12/13 07:03:01;;;;;;;0.20;0.20;;;-1.20;99.90;;;;;;5086938;28;20033;-75
2022/12/13 07:05:27;;;;;;;0.20;0.20;;;-0.10;99.90;;;;;;5072204;28;20051;-75
2022/12/13 07:07:53;;;;;;;0.20;0.20;;;0.00;99.90;;;;;;5070836;28;20032;-75
2022/12/13 07:10:20;;;;;;;0.20;0.20;;;-0.20;99.90;;;;;;5054211;28;20037;-74
2022/12/13 07:12:46;;;;;;;0.20;0.20;;;-0.20;99.90;;;;;;5072092;28;20017;-75
2022/12/13 07:15:17;;;;;;;0.20;0.20;;;0.00;99.90;;;;;;5072009;28;20107;-75
2022/12/13 07:17:43;;;;;;;0.43;0.43;;;0.20;99.90;;;;;;5069293;28;20234;-75
2022/12/13 07:20:29;;;;;;;0.10;0.10;;;0.20;99.90;;;;;;5090810;28;20031;-76
2022/12/13 07:22:58;;;;;;;0.20;0.20;;;0.20;99.90;;;;;;5072776;28;20352;-75
2022/12/13 07:25:23;;;;;;;0.20;0.20;;;0.20;99.90;;;;;;5070715;28;20032;-75
2022/12/13 07:28:02;;;;;;;0.20;0.20;;;0.30;99.90;;;;;;5082270;28;20020;-75
2022/12/13 07:30:32;;;;;;;0.20;0.20;;;0.20;99.90;;;;;;5077120;28;20021;-75
2022/12/13 07:32:59;;;;;;;0.20;0.20;;;0.30;99.90;;;;;;5056499;28;20092;-75
2022/12/13 07:36:17;;;;;;;0.17;0.17;;;-0.20;99.90;;;;;;5072759;28;20025;-75
2022/12/13 07:38:55;;;;;;;0.20;0.20;;;0.50;99.90;;;;;;5088636;28;20040;-74
2022/12/13 07:41:25;;;;;;;0.20;0.20;;;0.70;99.90;;;;;;5072376;28;20021;-75
2022/12/13 07:43:52;;;;;;;0.10;0.10;;;0.70;99.90;;;;;;5075038;28;20032;-74
2022/12/13 07:46:28;;;;;;;0.20;0.20;;;0.70;99.90;;;;;;5075869;28;20028;-75
2022/12/13 07:49:01;;;;;;;0.10;0.10;;;0.80;99.90;;;;;;5088849;28;20025;-75
2022/12/13 07:51:27;;;;;;;0.15;0.15;;;3.60;99.90;;;;;;5068408;28;20106;-75
2022/12/13 07:53:56;;;;;;;0.20;0.20;;;0.70;99.90;;;;;;5086717;28;20032;-75
2022/12/13 07:56:22;;;;;;;1.27;1.27;;;0.90;99.90;;;;;;5072172;28;20024;-75
2022/12/13 07:58:51;;;;;;;0.10;0.10;;;1.00;99.90;;;;;;5075385;28;20028;-75
2022/12/13 08:01:19;;;;;;;0.10;0.10;;;1.10;99.90;;;;;;5083768;28;20034;-75
2022/12/13 08:03:49;;;;;;;0.17;0.17;;;1.00;99.90;;;;;;5071856;28;20024;-75
2022/12/13 08:06:15;;;;;;;0.10;0.10;;;;;;;;;;5035916;28;20051;-75
2022/12/13 08:08:49;;;;;;;0.13;0.13;;;0.80;99.90;;;;;;5094772;28;20028;-75
2022/12/13 08:11:18;;;;;;;0.10;0.10;;;;;;;;;;5076356;28;20055;-75
2022/12/13 08:13:44;;;;;;;0.10;0.10;;;0.70;99.90;;;;;;5081954;28;20017;-74
2022/12/13 08:16:27;;;;;;;0.10;0.10;;;0.80;99.90;;;;;;5076466;28;20709;-75
2022/12/13 08:18:59;;;;;;;0.20;0.20;;;0.90;99.90;;;;;;5079372;28;20047;-75
2022/12/13 08:21:24;;;;;;;0.10;0.10;;;0.90;99.90;;;;;;5067216;28;20025;-75
2022/12/13 08:23:50;;;;;;;0.10;0.10;;;1.00;99.90;;;;;;5070608;28;20067;-75
2022/12/13 08:26:16;;;;;;;0.30;0.30;;;1.30;99.90;;;;;;5059945;28;20047;-75
2022/12/13 08:28:41;;;;;;;0.08;0.08;;;1.50;99.90;;;;;;5080602;28;20031;-75
2022/12/13 08:31:11;;;;;;;14.15;13.15;;;1.50;99.90;;;;;;5068892;28;20019;-75
2022/12/13 08:33:39;;;;;;;0.17;0.17;;;2.50;99.90;;;;;;5067390;28;20548;-74
2022/12/13 08:36:16;;;;;;;0.00;0.00;;;1.90;99.90;;;;;;5065560;28;20043;-74
2022/12/13 08:38:43;;;;;;;0.10;0.10;;;2.00;99.90;;;;;;5049217;28;20021;-75
2022/12/13 08:41:10;;;;;;;0.10;0.10;;;2.10;99.90;;;;;;5065950;28;20013;-74
2022/12/13 08:43:36;;;;;;;0.10;0.10;;;2.30;99.90;;;;;;5081309;28;20048;-75
2022/12/13 08:46:02;;;;;;;0.10;0.10;;;2.30;99.90;;;;;;5079240;28;20013;-75
2022/12/13 08:48:29;;;;;;;0.10;0.10;;;2.50;99.90;;;;;;5064722;28;20032;-74
2022/12/13 08:51:02;;;;;;;0.00;0.00;;;2.50;99.90;;;;;;5068821;28;20542;-74
2022/12/13 08:53:28;;;;;;;0.10;0.10;;;2.60;99.90;;;;;;5072331;28;20496;-74
2022/12/13 08:55:58;;;;;;;0.10;0.10;;;2.60;99.90;;;;;;5070383;28;20035;-74
2022/12/13 08:58:24;;;;;;;0.40;0.40;;;2.70;99.90;;;;;;5054351;28;20021;-74
2022/12/13 09:00:50;;;;;;;0.10;0.10;;;2.70;99.90;;;;;;5071769;28;20130;-75
2022/12/13 09:03:16;;;;;;;0.10;0.10;;;2.70;99.90;;;;;;5069088;28;20052;-75
2022/12/13 09:05:43;;;;;;;0.10;0.10;;;2.70;99.90;;;;;;5059809;28;20059;-75
2022/12/13 09:08:19;;;;;;;2.10;1.63;;;2.50;99.90;;;;;;5078005;28;20013;-75
2022/12/13 09:10:45;;;;;;;0.00;0.00;;;2.50;99.90;;;;;;5066267;28;20076;-75
2022/12/13 09:13:11;;;;;;;0.00;0.00;;;2.50;99.90;;;;;;5064304;28;20020;-75
2022/12/13 09:15:44;;;;;;;0.10;0.10;;;2.10;99.90;;;;;;5054850;28;20021;-74
2022/12/13 09:18:09;;;;;;;0.10;0.10;;;2.00;99.90;;;;;;5083374;28;20020;-74
2022/12/13 09:20:56;;;;;;;0.05;0.05;;;1.90;99.90;;;;;;5073907;28;20046;-75
2022/12/13 09:23:23;;;;;;;0.20;0.20;;;1.80;99.90;;;;;;5054509;28;20043;-75
2022/12/13 09:26:01;;;;;;;0.10;0.10;;;1.70;99.90;;;;;;5081083;28;20095;-74
2022/12/13 09:28:43;;;;;;;0.17;0.17;;;4.70;99.90;;;;;;5067862;28;20421;-75
2022/12/13 09:31:11;;;;;;;0.50;0.50;;;1.60;99.90;;;;;;5046821;28;20019;-75
2022/12/13 09:33:57;;;;;;;0.40;0.40;;;1.60;99.90;;;;;;5053512;28;20048;-75
2022/12/13 09:36:25;;;;;;;2.13;2.05;;;1.80;99.90;;;;;;5062494;28;20036;-75
2022/12/13 09:38:54;;;;;;;2.22;2.15;;;1.70;99.90;;;;;;5077954;28;20021;-74
2022/12/13 09:41:32;;;;;;;0.10;0.10;;;2.00;99.90;;;;;;5050723;28;20029;-75
2022/12/13 09:44:04;;;;;;;0.10;0.10;;;2.10;99.90;;;;;;5081479;28;20038;-75
2022/12/13 09:46:57;;;;;;;0.20;0.20;;;2.30;99.90;;;;;;5062243;28;20020;-74
2022/12/13 09:49:36;;;;;;;9.68;9.13;;;2.40;99.90;;;;;;5073698;28;20025;-75
2022/12/13 09:52:05;;;;;;;0.10;0.10;;;2.50;99.90;;;;;;5082833;28;20040;-75
2022/12/13 09:54:32;;;;;;;0.10;0.10;;;2.60;99.90;;;;;;5049840;28;20036;-75
2022/12/13 09:56:59;;;;;;;17.45;10.10;;;2.70;99.90;;;;;;5074878;28;20020;-75
2022/12/13 09:59:34;;;;;;;7.90;7.55;;;2.80;99.90;;;;;;5068424;28;20020;-74
2022/12/13 10:02:16;;;;;;;0.00;0.00;;;2.80;99.90;;;;;;5048955;28;20035;-75
2022/12/13 10:04:45;;;;;;;0.38;0.38;;;2.60;99.90;;;;;;5073179;28;20032;-75
2022/12/13 10:07:27;;;;;;;0.10;0.10;;;2.60;99.90;;;;;;5054231;28;20040;-75
2022/12/13 10:10:00;;;;;;;0.00;0.00;;;2.60;99.90;;;;;;5067280;28;20100;-75
2022/12/13 10:12:27;;;;;;;0.00;0.00;;;2.70;99.90;;;;;;5048866;28;20028;-75
2022/12/13 10:14:58;;;;;;;0.10;0.10;;;2.80;99.90;;;;;;5066912;28;20025;-76
2022/12/13 10:17:31;;;;;;;0.00;0.00;;;2.90;99.90;;;;;;5068928;28;20080;-75
2022/12/13 10:20:24;;;;;;;0.10;0.10;;;2.90;99.90;;;;;;5074547;28;20032;-75
2022/12/13 10:22:56;;;;;;;0.20;0.20;;;2.90;99.90;;;;;;5081654;28;20017;-74
2022/12/13 10:25:53;;;;;;;0.00;0.00;;;2.80;99.90;;;;;;5067373;28;20624;-75
2022/12/13 10:28:32;;;;;;;0.30;0.30;;;3.00;99.90;;;;;;5047185;28;20044;-76
2022/12/13 10:30:59;;;;;;;0.47;0.47;;;3.10;99.90;;;;;;5069193;28;20025;-75
2022/12/13 10:33:29;;;;;;;0.00;0.00;;;3.10;99.90;;;;;;5065306;28;20024;-75
2022/12/13 10:36:12;;;;;;;0.10;0.10;;;2.50;99.90;;;;;;5065103;28;20025;-75
2022/12/13 10:38:40;;;;;;;0.00;0.00;;;3.30;99.90;;;;;;5048362;28;20036;-75
2022/12/13 10:41:24;;;;;;;36.90;33.88;;;3.20;99.90;;;;;;5069463;28;20750;-75
2022/12/13 10:44:23;;;;;;;0.10;0.10;;;3.20;99.90;;;;;;5078411;28;20364;-75
2022/12/13 10:47:03;;;;;;;0.00;0.00;;;3.20;99.90;;;;;;4996470;28;20034;-75
2022/12/13 10:49:42;;;;;;;1.00;1.00;;;3.60;99.90;;;;;;4985907;28;20029;-75
2022/12/13 10:52:30;;;;;;;0.10;0.10;;;3.40;99.90;;;;;;4984058;28;20031;-75
2022/12/13 10:54:58;;;;;;;0.10;0.10;;;3.40;99.90;;;;;;4983665;28;20121;-75
2022/12/13 10:57:24;;;;;;;0.70;0.70;;;3.50;99.90;;;;;;4989101;28;20571;-75
2022/12/13 10:59:51;;;;;;;1.00;1.00;;;3.40;99.90;;;;;;4987203;28;20711;-75
2022/12/13 11:02:35;;;;;;;0.35;0.35;;;3.40;99.90;;;;;;4987485;28;20031;-75
2022/12/13 11:05:24;;;;;;;0.10;0.10;;;3.50;99.90;;;;;;4988219;28;20082;-75
2022/12/13 11:07:50;;;;;;;0.05;0.05;;;3.60;99.90;;;;;;5023146;28;20033;-75
2022/12/13 11:10:22;;;;;;;0.10;0.10;;;3.60;99.90;;;;;;5024438;28;20104;-75
2022/12/13 11:12:49;;;;;;;0.00;0.00;;;3.60;99.90;;;;;;5021783;28;20038;-75
2022/12/13 11:15:22;;;;;;;2.95;2.83;;;3.50;99.90;;;;;;5006512;28;20032;-75
2022/12/13 11:18:00;;;;;;;0.00;0.00;;;3.40;99.90;;;;;;5029658;28;20232;-75
2022/12/13 11:20:58;;;;;;;57.78;53.30;;;3.40;99.90;;;;;;5029577;28;20021;-75
2022/12/13 11:23:38;;;;;;;0.10;0.10;;;3.40;99.90;;;;;;5046173;28;20064;-75
2022/12/13 11:26:17;;;;;;;0.10;0.10;;;3.40;99.90;;;;;;5051705;28;20021;-75
2022/12/13 11:29:11;;;;;;;0.10;0.10;;;3.30;99.90;;;;;;5070141;28;20032;-75
2022/12/13 11:31:58;;;;;;;15.18;14.60;;;3.70;99.90;;;;;;5065463;28;20024;-75
2022/12/13 11:34:48;;;;;;;0.15;0.15;;;3.10;99.90;;;;;;5048636;28;20024;-75
2022/12/13 11:37:44;;;;;;;0.00;0.00;;;3.20;99.90;;;;;;5074931;28;20029;-75
2022/12/13 11:40:29;;;;;;;0.10;0.10;;;3.30;99.90;;;;;;4988060;28;20168;-74
2022/12/13 11:43:29;;;;;;;0.10;0.10;;;3.30;99.90;;;;;;5008642;28;20040;-74
2022/12/13 11:45:59;;;;;;;0.00;0.00;;;3.30;99.90;;;;;;5010109;28;20114;-75
2022/12/13 11:49:13;;;;;;;12.30;11.77;;;3.30;99.90;;;;;;4997749;28;20329;-75
2022/12/13 11:51:50;;;;;;;0.10;0.10;;;3.40;99.90;;;;;;5002394;28;20045;-75
2022/12/13 11:54:22;;;;;;;0.10;0.10;;;3.30;99.90;;;;;;5015507;28;20084;-75
2022/12/13 11:56:49;;;;;;;0.03;0.03;;;3.40;99.90;;;;;;5014691;28;20026;-75
2022/12/13 11:59:47;;;;;;;1.95;1.85;;;3.30;99.90;;;;;;5014145;28;20049;-74
2022/12/13 12:02:39;;;;;;;0.65;0.65;;;3.30;99.90;;;;;;5010302;28;20022;-75
2022/12/13 12:05:53;;;;;;;0.77;0.75;;;3.20;99.90;;;;;;5013557;28;20435;-75
2022/12/13 12:08:58;;;;;;;0.00;0.00;;;3.30;99.90;;;;;;4945780;28;20047;-75
2022/12/13 12:11:56;;;;;;;0.10;0.10;;;3.30;99.90;;;;;;4890265;29;20119;-75
2022/12/13 12:15:10;;;;;;;0.00;0.00;;;3.10;99.90;;;;;;4891142;29;20043;-74
2022/12/13 12:17:39;;;;;;;0.00;0.00;;;3.00;99.90;;;;;;4892329;29;20894;-75
2022/12/13 12:20:14;;;;;;;0.10;0.10;;;2.90;99.90;;;;;;4894636;29;20109;-75
2022/12/13 12:22:55;;;;;;;0.10;0.10;;;3.00;99.90;;;;;;4893320;29;20088;-75
2022/12/13 12:25:49;;;;;;;4.68;4.47;;;2.90;99.90;;;;;;4903594;29;20044;-75
2022/12/13 12:28:34;;;;;;;0.10;0.10;;;2.90;99.90;;;;;;4897209;29;20029;-74
2022/12/13 12:31:12;;;;;;;5.93;5.72;;;2.90;99.90;;;;;;4896362;29;20052;-74
2022/12/13 12:33:58;;;;;;;18.08;17.25;;;2.80;99.90;;;;;;4898672;29;20104;-75
2022/12/13 12:37:10;;;;;;;0.10;0.10;;;2.90;99.90;;;;;;4905412;29;20118;-75
2022/12/13 12:40:00;;;;;;;0.08;0.08;;;2.80;99.90;;;;;;4934117;29;20051;-74
2022/12/13 12:42:40;;;;;;;1.65;1.65;;;2.70;99.90;;;;;;4943269;29;20040;-75
2022/12/13 12:45:28;;;;;;;0.10;0.10;;;2.70;99.90;;;;;;4939866;29;20036;-76
2022/12/13 12:48:15;;;;;;;0.10;0.10;;;2.60;99.90;;;;;;4970377;28;20029;-74
2022/12/13 12:51:27;;;;;;;0.10;0.10;;;2.50;99.90;;;;;;5022887;28;20536;-74
2022/12/13 12:54:37;;;;;;;0.10;0.10;;;0.30;99.90;;;;;;5039935;28;20056;-74
2022/12/13 12:57:24;;;;;;;0.10;0.10;;;2.40;99.90;;;;;;5078605;28;20075;-75
2022/12/13 13:00:02;;;;;;;0.13;0.13;;;2.30;99.90;;;;;;5072997;28;20047;-75
2022/12/13 13:02:46;;;;;;;0.00;0.00;;;2.30;99.90;;;;;;5077648;28;20027;-75
2022/12/13 13:05:39;;;;;;;0.10;0.10;;;2.30;99.90;;;;;;5078608;28;20076;-74
2022/12/13 13:08:35;;;;;;;0.08;0.08;;;2.30;99.90;;;;;;5078066;28;20051;-75
2022/12/13 13:11:04;;;;;;;0.00;0.00;;;2.30;99.90;;;;;;5076970;28;20020;-74
2022/12/13 13:13:48;;;;;;;0.10;0.10;;;2.20;99.90;;;;;;5071910;28;20028;-74
2022/12/13 13:16:26;;;;;;;0.10;0.10;;;2.20;99.90;;;;;;5077642;28;20023;-74
2022/12/13 13:18:55;;;;;;;0.03;0.03;;;2.10;99.90;;;;;;5058607;28;20031;-74
2022/12/13 13:21:31;;;;;;;0.82;0.82;;;2.10;99.90;;;;;;5077400;28;20059;-75
2022/12/13 13:24:33;;;;;;;0.10;0.10;;;2.10;99.90;;;;;;5067617;28;20120;-75
2022/12/13 13:27:30;;;;;;;0.20;0.20;;;2.30;99.90;;;;;;4994914;28;20093;-75
2022/12/13 13:30:18;;;;;;;0.00;0.00;;;2.20;99.90;;;;;;4989994;28;20133;-75